LFKJLIEE [pc12]

Details From LFKJ - Napoleon Bonaparte
To LIEE - Cagliari Elmas
Flight Number pc12
Tags None
Created
Modified
Stats Distance 174 nm / 322 km
Max Altitude 15,000 ft / 4,572 m
Waypoints 11
Social Downloads 6
Likes 0
Share

Download

Looking for another format? Having issues loading an existing format? Contact us
Advertisement - Login to hide

Notes

None

Route

LFKJ SEA FGI POZZO SME30 DEC44 KOVAS DEC47 CAG06 CAG04 LIEE

ID Type Via Altitude (ft/m) Position (lat/lon) Dist (leg/tot) Name
O LFKJ APT - 18 / 5 41.92289 / 8.79959 - / 0 nm Napoleon Bonaparte
SEA FIX - 1,500 / 457 41.81028 / 8.84833 7 / 7 nm
FGI VOR - 15,000 / 4,572 41.50219 / 9.08342 21 / 28 nm FIGARI VOR-DME
POZZO FIX - 15,000 / 4,572 40.94583 / 9.26639 34 / 62 nm
SME30 FIX - 15,000 / 4,572 40.70091 / 9.28539 14 / 77 nm
DEC44 FIX - 15,000 / 4,572 40.10667 / 8.91500 39 / 117 nm
KOVAS FIX - 15,000 / 4,572 39.64556 / 9.07056 28 / 145 nm
DEC47 FIX - 15,000 / 4,572 39.54440 / 8.92084 9 / 154 nm
CAG06 FIX - 10,000 / 3,048 39.32795 / 8.97477 13 / 168 nm
CAG04 FIX - 5,000 / 1,524 39.29942 / 8.99776 2 / 170 nm
O LIEE APT - 13 / 4 39.25147 / 9.05429 3 / 174 nm Cagliari Elmas

Altitude Profile

Advertisement - Login to hide

Weather


0- 5 10 15 20 25 30 35+ Temperature / °C

Clouds and Precipitation
Forecast for 2020-10-21 06:00 UTC. Updated an hour ago

Ground ~20,000 ft ~40,000 ft Winds

LFKJ

Details ICAO LFKJ (AJA)
Name Napoleon Bonaparte
Region France
Timezone Europe/Paris (UTC+2.0)
Stats Elevation 19 ft / 6 m (AMSL)
Location 41.921700° 8.801090°
Runways 1
Magnetic Variation 2.635° E

METAR

LFKJ 210430Z AUTO 05007KT CAVOK 09/06 Q1020 NOSIG

Decode

TAF

TAF LFKJ 210200Z 2103/2203 05005KT CAVOK BECMG 2108/2110 23010KT FEW040 BECMG 2117/2120 05005KT CAVOK

Decode

Departure Runways

ID Width Length Bearing (true/mag) Surface Threshold Overrun Markings Lighting
02 148 ft / 45 m 7,904 ft / 2,409 m 24.84° / 22.21° CONCRETE 0 ft / 0 m 161 ft / 49 m PREC-APP CENTERLINE EDGE THRESHOLD REIL-OMNI
20 148 ft / 45 m 7,904 ft / 2,409 m 204.85° / 202.21° CONCRETE 741 ft / 226 m 230 ft / 70 m PREC-APP CENTERLINE EDGE THRESHOLD REIL-OMNI

LIEE

Details ICAO LIEE (CAG)
Name Cagliari-Elmas "Mario Mameli"
Region Italy
Timezone Europe/Rome (UTC+2.0)
Stats Elevation 13 ft / 4 m (AMSL)
Location 39.251500° 9.054300°
Runways 1
Magnetic Variation 2.587° E

METAR

LIEE 210420Z 14012KT 9000 FEW025 19/16 Q1020

Decode

TAF

TAF LIEE 202300Z 2100/2124 15011KT 9999 FEW040= TAF LIEO 202300Z 2100/2124 VRB04KT 9999 SCT040 BECMG 2109/2111 10010KT BECMG 2117/2119 VRB05KT

Decode

Destination Runways

ID Width Length Bearing (true/mag) Surface Threshold Overrun Markings Lighting
14 148 ft / 45 m 9,209 ft / 2,807 m 138.10° / 135.51° ASPHALT 0 ft / 0 m 0 ft / 0 m PREC-APP CENTERLINE EDGE THRESHOLD REIL-OMNI
32 148 ft / 45 m 9,209 ft / 2,807 m 318.11° / 315.53° ASPHALT 0 ft / 0 m 0 ft / 0 m PREC-APP CENTERLINE EDGE THRESHOLD ALSF-II REIL-OMNI

Approach Navaids

Runway Type Ident Frequency Range Bearing (true/mag) Slope Elevation
32 OM OM - - 318.08° / 315.50 ° - 13 ft / 4 m (AMSL)
32 LOC-ILS IEL 109.50 MHz 18 nm / 33 km 318.10° / 315.51 ° - 13 ft / 4 m (AMSL)
32 MM MM - - 318.08° / 315.50 ° - 13 ft / 4 m (AMSL)
32 DME IEL 109.50 MHz 18 nm / 33 km - - 26 ft / 8 m (AMSL)
32 GS IEL 109.50 MHz 10 nm / 19 km 318.10° / 315.51 ° 3.00° 13 ft / 4 m (AMSL)

Popular Alternatives